createdAt,value
2022-08-05T00:01:36.268Z,100235.59
2022-08-05T00:04:17.494Z,100241.16
2022-08-05T00:06:45.100Z,100234.25
2022-08-05T00:09:15.768Z,100239.34
2022-08-05T00:11:49.525Z,100229.34
2022-08-05T00:14:29.320Z,100242.06
2022-08-05T00:17:01.882Z,100241.97
2022-08-05T00:19:33.145Z,100242.38
2022-08-05T00:22:04.863Z,100224.53
2022-08-05T00:24:34.339Z,100230.91
2022-08-05T00:27:04.665Z,100242.63
2022-08-05T00:29:38.458Z,100230.06
2022-08-05T00:32:12.114Z,100221.56
2022-08-05T00:35:04.281Z,100228.16
2022-08-05T00:37:50.632Z,100232.63
2022-08-05T00:40:27.115Z,100225.63
2022-08-05T00:43:02.019Z,100221.38
2022-08-05T00:45:43.132Z,100225.81
2022-08-05T00:48:27.705Z,100226.66
2022-08-05T00:50:59.964Z,100223.69
2022-08-05T00:54:01.431Z,100227.34
2022-08-05T00:56:24.671Z,100226.25
2022-08-05T00:58:52.263Z,100216.22
2022-08-05T01:01:24.995Z,100228.81
2022-08-05T01:04:14.320Z,100229.69
2022-08-05T01:06:43.869Z,100228.19
2022-08-05T01:09:17.226Z,100219.91
2022-08-05T01:11:49.982Z,100214.34
2022-08-05T01:14:27.926Z,100224.59
2022-08-05T01:17:05.501Z,100142.25
2022-08-05T01:20:00.862Z,100224.78
2022-08-05T01:23:14.993Z,100213.09
2022-08-05T01:26:11.174Z,100224.81
2022-08-05T01:28:55.948Z,100218.41
2022-08-05T01:31:29.907Z,100220.75
2022-08-05T01:34:26.920Z,100227.72
2022-08-05T01:37:02.007Z,100230.50
2022-08-05T01:39:46.390Z,100227.72
2022-08-05T01:42:19.937Z,100236.09
2022-08-05T01:44:53.935Z,100232.88
2022-08-05T01:47:24.674Z,100229.25
2022-08-05T01:50:14.282Z,100195.66
2022-08-05T01:52:50.034Z,100224.13
2022-08-05T01:55:20.848Z,100227.53
2022-08-05T01:58:29.709Z,100226.69
2022-08-05T02:00:42.999Z,100221.84
2022-08-05T02:03:24.447Z,100220.75
2022-08-05T02:06:03.706Z,100220.75
2022-08-05T02:08:58.033Z,100213.53
2022-08-05T02:11:33.135Z,100226.28
2022-08-05T02:14:12.930Z,100229.28
2022-08-05T02:16:52.279Z,100232.88
2022-08-05T02:19:34.455Z,100232.66
2022-08-05T02:22:02.176Z,100235.22
2022-08-05T02:24:37.766Z,100233.25
2022-08-05T02:27:10.420Z,100223.88
2022-08-05T02:29:58.592Z,100229.22
2022-08-05T02:32:31.590Z,100230.03
2022-08-05T02:35:13.496Z,100235.78
2022-08-05T02:37:46.592Z,100236.41
2022-08-05T02:40:24.089Z,100237.22
2022-08-05T02:42:54.011Z,100243.75
2022-08-05T02:45:25.208Z,100245.47
2022-08-05T02:48:07.059Z,100241.00
2022-08-05T02:50:44.049Z,100237.19
2022-08-05T02:53:16.127Z,100233.06
2022-08-05T02:55:54.507Z,100237.97
2022-08-05T02:58:26.667Z,100238.38
2022-08-05T03:01:01.968Z,100230.53
2022-08-05T03:03:34.237Z,100235.47
2022-08-05T03:06:54.657Z,100235.28
2022-08-05T03:09:07.857Z,100233.72
2022-08-05T03:11:53.496Z,100240.03
2022-08-05T03:14:23.112Z,100237.75
2022-08-05T03:16:51.844Z,100233.63
2022-08-05T03:19:34.470Z,100236.34
2022-08-05T03:22:04.679Z,100232.41
2022-08-05T03:24:33.600Z,100231.56
2022-08-05T03:27:01.364Z,100227.13
2022-08-05T03:29:45.734Z,100232.63
2022-08-05T03:32:17.274Z,100227.91
2022-08-05T03:34:51.259Z,100238.16
2022-08-05T03:37:21.489Z,100228.34
2022-08-05T03:40:01.280Z,100237.72
2022-08-05T03:42:32.132Z,100252.59
2022-08-05T03:45:21.912Z,100243.88
2022-08-05T03:47:57.089Z,100239.84
2022-08-05T03:50:34.098Z,100236.56
2022-08-05T03:55:34.716Z,100236.91
2022-08-05T03:56:30.686Z,100241.53
2022-08-05T03:59:06.732Z,100249.56
2022-08-05T04:01:37.976Z,100231.03
2022-08-05T04:04:09.943Z,100240.78
2022-08-05T04:06:47.396Z,100244.88
2022-08-05T04:09:26.028Z,100235.75
2022-08-05T04:11:56.387Z,100252.13
2022-08-05T04:14:29.994Z,100245.72
2022-08-05T04:17:00.414Z,100246.59
2022-08-05T04:19:31.338Z,100248.31
2022-08-05T04:22:05.815Z,100244.09
2022-08-05T04:24:44.725Z,100238.78
2022-08-05T04:27:41.760Z,100246.47
2022-08-05T04:30:11.676Z,100240.97
2022-08-05T04:32:39.151Z,100242.66
2022-08-05T04:35:17.377Z,100233.09
2022-08-05T04:38:01.472Z,100238.84
2022-08-05T04:40:44.555Z,100241.19
2022-08-05T04:43:22.015Z,100242.03
2022-08-05T04:45:54.905Z,100230.50
2022-08-05T04:48:28.077Z,100227.09
2022-08-05T04:51:02.581Z,100246.69
2022-08-05T04:53:39.486Z,100238.50
2022-08-05T04:56:33.214Z,100242.38
2022-08-05T04:58:58.233Z,100242.31
2022-08-05T05:02:05.471Z,100227.38
2022-08-05T05:04:13.450Z,100245.13
2022-08-05T05:06:44.700Z,100233.13
2022-08-05T05:09:17.684Z,100234.41
2022-08-05T05:11:55.430Z,100233.00
2022-08-05T05:14:31.306Z,100210.06
2022-08-05T05:17:00.819Z,100228.59
2022-08-05T05:19:36.482Z,100227.75
2022-08-05T05:22:22.759Z,100224.94
2022-08-05T05:24:58.957Z,100220.22
2022-08-05T05:27:45.091Z,100210.25
2022-08-05T05:30:30.878Z,100221.25
2022-08-05T05:33:00.759Z,100200.41
2022-08-05T05:35:38.133Z,100226.19
2022-08-05T05:38:09.316Z,100223.75
2022-08-05T05:40:49.790Z,100219.13
2022-08-05T05:43:22.281Z,100228.78
2022-08-05T05:46:12.257Z,100221.59
2022-08-05T05:48:44.505Z,100228.59
2022-08-05T05:51:15.088Z,100230.97
2022-08-05T05:53:57.428Z,100222.63
2022-08-05T05:56:32.845Z,100222.75
2022-08-05T05:59:08.189Z,100215.13
2022-08-05T06:01:39.514Z,100219.88
2022-08-05T06:04:14.534Z,100231.78
2022-08-05T06:06:46.619Z,100221.91
2022-08-05T06:09:24.606Z,100222.75
2022-08-05T06:12:01.457Z,100231.50
2022-08-05T06:14:31.363Z,100240.28
2022-08-05T06:16:59.366Z,100235.22
2022-08-05T06:19:35.447Z,100233.59
2022-08-05T06:22:07.459Z,100205.47
2022-08-05T06:24:41.451Z,100233.91
2022-08-05T06:28:08.962Z,100236.28
2022-08-05T06:30:20.960Z,100243.56
2022-08-05T06:32:50.597Z,100229.88
2022-08-05T06:36:03.007Z,100236.19
2022-08-05T06:38:11.586Z,100232.78
2022-08-05T06:40:44.263Z,100231.06
2022-08-05T06:43:59.441Z,100216.91
2022-08-05T06:46:06.909Z,100223.72
2022-08-05T06:48:47.038Z,100224.47
2022-08-05T06:51:30.183Z,100221.94
2022-08-05T06:54:03.512Z,100227.91
2022-08-05T06:56:34.116Z,100222.34
2022-08-05T06:59:08.510Z,100223.28
2022-08-05T07:01:37.364Z,100224.25
2022-08-05T07:04:08.431Z,100210.91
2022-08-05T07:06:35.892Z,100231.47
2022-08-05T07:09:04.658Z,100221.16
2022-08-05T07:11:36.878Z,100222.84
2022-08-05T07:14:30.147Z,100222.00
2022-08-05T07:18:01.316Z,100213.00
2022-08-05T07:22:42.014Z,100228.53
2022-08-05T07:25:23.720Z,100229.22
2022-08-05T07:28:07.241Z,100230.13
2022-08-05T07:30:39.696Z,100232.97
2022-08-05T07:33:15.627Z,100225.06
2022-08-05T07:36:04.594Z,100219.41
2022-08-05T07:38:38.667Z,100228.03
2022-08-05T07:42:08.710Z,100200.06
2022-08-05T07:44:18.685Z,100223.19
2022-08-05T07:46:49.262Z,100216.28
2022-08-05T07:49:18.703Z,100217.09
2022-08-05T07:51:53.797Z,100216.53
2022-08-05T07:54:31.207Z,100210.16
2022-08-05T07:57:17.890Z,100223.81
2022-08-05T07:59:52.303Z,100222.84
2022-08-05T08:02:31.261Z,100218.31
2022-08-05T08:05:16.657Z,100203.69
2022-08-05T08:08:00.146Z,100212.69
2022-08-05T08:10:28.574Z,100175.69
2022-08-05T08:12:58.509Z,100212.69
2022-08-05T08:15:37.387Z,100213.84
2022-08-05T08:18:14.397Z,100215.03
2022-08-05T08:21:03.001Z,100207.84
2022-08-05T08:24:01.006Z,100207.91
2022-08-05T08:26:27.051Z,100211.63
2022-08-05T08:29:02.048Z,100213.38
2022-08-05T08:31:45.413Z,100214.44
2022-08-05T08:34:13.646Z,100207.34
2022-08-05T08:36:47.584Z,100206.53
2022-08-05T08:39:20.408Z,100208.81
2022-08-05T08:41:59.863Z,100200.44
2022-08-05T08:45:18.819Z,100205.25
2022-08-05T08:48:06.002Z,100205.66
2022-08-05T08:50:31.898Z,100198.63
2022-08-05T08:53:12.017Z,100192.75
2022-08-05T08:56:04.015Z,100192.06
2022-08-05T08:58:37.055Z,100184.50
2022-08-05T09:01:16.225Z,100183.03
2022-08-05T09:03:57.228Z,100189.31
2022-08-05T09:06:29.818Z,100188.41
2022-08-05T09:09:02.444Z,100180.69
2022-08-05T09:11:53.370Z,100176.06
2022-08-05T09:14:56.692Z,100181.34
2022-08-05T09:17:40.156Z,100170.91
2022-08-05T09:20:02.377Z,100167.84
2022-08-05T09:23:19.176Z,100170.44
2022-08-05T09:26:00.858Z,100159.66
2022-08-05T09:28:34.344Z,100158.09
2022-08-05T09:31:22.174Z,100152.06
2022-08-05T09:33:56.813Z,100149.31
2022-08-05T09:36:37.833Z,100150.78
2022-08-05T09:39:18.358Z,100140.38
2022-08-05T09:42:04.993Z,100148.16
2022-08-05T09:44:41.520Z,100143.94
2022-08-05T09:47:15.801Z,100140.47
2022-08-05T09:50:00.638Z,100136.56
2022-08-05T09:52:36.620Z,100137.13
2022-08-05T09:55:57.611Z,100133.59
2022-08-05T09:58:11.226Z,100129.78
2022-08-05T10:00:38.830Z,100112.75
2022-08-05T10:03:11.547Z,100121.78
2022-08-05T10:05:42.088Z,100121.59
2022-08-05T10:08:37.588Z,100119.81
2022-08-05T10:10:59.845Z,100111.56
2022-08-05T10:13:39.398Z,100115.31
2022-08-05T10:16:32.111Z,100110.34
2022-08-05T10:19:08.439Z,100089.03
2022-08-05T10:21:40.146Z,100109.22
2022-08-05T10:24:13.701Z,100108.13
2022-08-05T10:26:49.051Z,100104.56
2022-08-05T10:30:06.893Z,100094.38
2022-08-05T10:32:54.509Z,100100.00
2022-08-05T10:35:01.477Z,100096.72
2022-08-05T10:37:37.159Z,100099.63
2022-08-05T10:40:27.966Z,100089.34
2022-08-05T10:43:04.712Z,100088.94
2022-08-05T10:45:40.227Z,100078.69
2022-08-05T10:48:35.268Z,100087.44
2022-08-05T10:51:21.733Z,100080.50
2022-08-05T10:53:54.473Z,100070.03
2022-08-05T10:56:27.321Z,100081.78
2022-08-05T10:58:57.643Z,100080.84
2022-08-05T11:01:55.319Z,100070.34
2022-08-05T11:04:31.010Z,100072.66
2022-08-05T11:07:01.616Z,100076.66
2022-08-05T11:09:45.575Z,100066.63
2022-08-05T11:12:41.222Z,100063.81
2022-08-05T11:16:01.362Z,100062.75
2022-08-05T11:18:15.127Z,100061.19
2022-08-05T11:20:57.960Z,100033.78
2022-08-05T11:24:05.225Z,100051.38
2022-08-05T11:26:43.479Z,100045.59
2022-08-05T11:29:38.027Z,100055.56
2022-08-05T11:32:28.865Z,100052.59
2022-08-05T11:34:57.806Z,100065.03
2022-08-05T11:38:36.405Z,100044.59
2022-08-05T11:41:34.679Z,100052.41
2022-08-05T11:44:04.682Z,100048.84
2022-08-05T11:47:10.181Z,100039.56
2022-08-05T11:49:34.077Z,100049.28
2022-08-05T11:52:01.892Z,100039.88
2022-08-05T11:54:40.321Z,100050.19
2022-08-05T11:57:25.889Z,100035.00
2022-08-05T11:59:55.082Z,100042.03
2022-08-05T12:02:33.079Z,100042.22
2022-08-05T12:05:06.968Z,100039.50
2022-08-05T12:08:08.963Z,100043.84
2022-08-05T12:10:43.387Z,100046.63
2022-08-05T12:13:27.703Z,100037.22
2022-08-05T12:16:14.951Z,100036.66
2022-08-05T12:18:52.338Z,100030.41
2022-08-05T12:21:30.454Z,100031.28
2022-08-05T12:24:06.873Z,100036.09
2022-08-05T12:26:43.905Z,100042.66
2022-08-05T12:29:22.871Z,100038.63
2022-08-05T12:32:02.415Z,100038.09
2022-08-05T12:34:35.766Z,100037.56
2022-08-05T12:37:30.125Z,99987.38
2022-08-05T12:40:03.184Z,100041.59
2022-08-05T12:42:31.547Z,100032.28
2022-08-05T12:45:10.510Z,100041.06
2022-08-05T12:47:50.346Z,100035.03
2022-08-05T12:50:26.076Z,100041.84
2022-08-05T12:53:00.274Z,100043.75
2022-08-05T12:55:32.587Z,100045.75
2022-08-05T12:58:49.097Z,100030.19
2022-08-05T13:02:00.938Z,100035.09
2022-08-05T13:03:41.991Z,100024.69
2022-08-05T13:06:20.102Z,100021.47
2022-08-05T13:08:52.073Z,100010.44
2022-08-05T13:12:02.061Z,100018.69
2022-08-05T13:14:36.263Z,100022.00
2022-08-05T13:17:20.545Z,100008.31
2022-08-05T13:20:25.287Z,100022.81
2022-08-05T13:22:56.635Z,99998.63
2022-08-05T13:25:52.283Z,100010.69
2022-08-05T13:28:14.296Z,100014.88
2022-08-05T13:30:42.903Z,100008.13
2022-08-05T13:33:14.160Z,100004.59
2022-08-05T13:35:43.352Z,100002.00
2022-08-05T13:38:30.668Z,100015.78
2022-08-05T13:41:01.720Z,100012.13
2022-08-05T13:43:45.924Z,100007.06
2022-08-05T13:46:30.706Z,100004.91
2022-08-05T13:49:10.237Z,100012.06
2022-08-05T13:51:45.762Z,100022.22
2022-08-05T13:54:20.883Z,100022.31
2022-08-05T13:56:52.629Z,100019.16
2022-08-05T13:59:24.276Z,100010.34
2022-08-05T14:01:56.412Z,100022.84
2022-08-05T14:04:49.648Z,100011.69
2022-08-05T14:07:59.893Z,100008.22
2022-08-05T14:10:28.870Z,100018.28
2022-08-05T14:12:58.908Z,100005.56
2022-08-05T14:16:08.907Z,99992.47
2022-08-05T14:18:23.037Z,100008.16
2022-08-05T14:20:54.419Z,100001.13
2022-08-05T14:23:25.639Z,99995.06
2022-08-05T14:25:58.024Z,100001.25
2022-08-05T14:28:30.173Z,100010.81
2022-08-05T14:30:59.474Z,100008.50
2022-08-05T14:33:56.584Z,100007.13
2022-08-05T14:36:20.588Z,99995.59
2022-08-05T14:38:49.803Z,99997.50
2022-08-05T14:41:17.826Z,100005.44
2022-08-05T14:43:57.593Z,99997.66
2022-08-05T14:46:30.927Z,100003.78
2022-08-05T14:49:06.569Z,100005.50
2022-08-05T14:51:34.744Z,100008.03
2022-08-05T14:54:28.785Z,100006.34
2022-08-05T14:56:51.051Z,99999.34
2022-08-05T14:59:22.605Z,99998.69
2022-08-05T15:01:51.290Z,100006.06
2022-08-05T15:04:22.303Z,100001.03
2022-08-05T15:06:51.813Z,100005.53
2022-08-05T15:09:51.462Z,100004.09
2022-08-05T15:12:09.514Z,100008.34
2022-08-05T15:14:48.458Z,99997.38
2022-08-05T15:17:45.634Z,100005.50
2022-08-05T15:20:15.533Z,100000.44
2022-08-05T15:22:46.184Z,99991.47
2022-08-05T15:25:23.227Z,99986.41
2022-08-05T15:27:51.949Z,99986.72
2022-08-05T15:30:20.218Z,99985.84
2022-08-05T15:32:51.423Z,99985.25
2022-08-05T15:35:18.987Z,99983.53
2022-08-05T15:38:31.876Z,99990.53
2022-08-05T15:41:03.676Z,99989.84
2022-08-05T15:43:25.904Z,99980.28
2022-08-05T15:46:00.674Z,99985.03
2022-08-05T15:48:30.200Z,99981.03
2022-08-05T15:51:03.333Z,99981.63
2022-08-05T15:53:38.354Z,99973.25
2022-08-05T15:56:20.764Z,99972.06
2022-08-05T15:58:49.066Z,99972.03
2022-08-05T16:01:18.152Z,99979.50
2022-08-05T16:03:50.397Z,99956.78
2022-08-05T16:06:20.945Z,99971.22
2022-08-05T16:08:55.263Z,99959.06
2022-08-05T16:11:39.920Z,99969.13
2022-08-05T16:14:10.028Z,99973.56
2022-08-05T16:16:46.020Z,99956.41
2022-08-05T16:19:18.787Z,99948.22
2022-08-05T16:21:59.371Z,99935.88
2022-08-05T16:24:40.143Z,99971.13
2022-08-05T16:27:10.287Z,99977.78
2022-08-05T16:29:49.993Z,99973.22
2022-08-05T16:32:28.709Z,99975.72
2022-08-05T16:34:58.861Z,99979.28
2022-08-05T16:38:02.516Z,99979.84
2022-08-05T16:40:26.758Z,99987.03
2022-08-05T16:42:57.009Z,99983.31
2022-08-05T16:46:07.795Z,99969.03
2022-08-05T16:48:11.815Z,99988.56
2022-08-05T16:50:54.248Z,99977.44
2022-08-05T16:53:32.433Z,99975.50
2022-08-05T16:56:00.218Z,99984.69
2022-08-05T16:58:27.978Z,99977.88
2022-08-05T17:00:56.524Z,99984.88
2022-08-05T17:03:27.850Z,99991.19
2022-08-05T17:05:59.443Z,99984.72
2022-08-05T17:08:35.886Z,99996.38
2022-08-05T17:11:16.905Z,99989.84
2022-08-05T17:13:46.541Z,99990.09
2022-08-05T17:16:32.913Z,99997.28
2022-08-05T17:19:01.716Z,100000.16
2022-08-05T17:21:35.311Z,100000.88
2022-08-05T17:24:28.173Z,99996.84
2022-08-05T17:26:58.787Z,99988.59
2022-08-05T17:29:34.043Z,99995.97
2022-08-05T17:32:16.821Z,99969.50
2022-08-05T17:34:49.197Z,99992.97
2022-08-05T17:37:41.482Z,99989.38
2022-08-05T17:40:15.111Z,99991.41
2022-08-05T17:42:50.604Z,99980.88
2022-08-05T17:45:38.063Z,99984.97
2022-08-05T17:48:09.146Z,99996.75
2022-08-05T17:50:47.332Z,99988.59
2022-08-05T17:53:18.411Z,99986.19
2022-08-05T17:55:48.385Z,99991.31
2022-08-05T17:58:21.638Z,99984.56
2022-08-05T18:00:59.987Z,99988.78
2022-08-05T18:03:59.009Z,99962.72
2022-08-05T18:06:15.850Z,99992.41
2022-08-05T18:08:52.626Z,99995.41
2022-08-05T18:11:23.685Z,100001.25
2022-08-05T18:13:53.642Z,99998.03
2022-08-05T18:16:20.928Z,100004.25
2022-08-05T18:18:49.956Z,100004.53
2022-08-05T18:21:19.842Z,100004.31
2022-08-05T18:23:53.882Z,100007.31
2022-08-05T18:26:27.484Z,100005.78
2022-08-05T18:28:57.675Z,100019.47
2022-08-05T18:31:25.234Z,99937.56
2022-08-05T18:33:55.249Z,100012.94
2022-08-05T18:36:28.544Z,100000.00
2022-08-05T18:38:56.340Z,100021.28
2022-08-05T18:41:56.292Z,100019.84
2022-08-05T18:44:12.738Z,100019.25
2022-08-05T18:46:41.311Z,100014.75
2022-08-05T18:49:30.519Z,100017.19
2022-08-05T18:52:33.118Z,100018.09
2022-08-05T18:55:02.759Z,100028.00
2022-08-05T18:57:43.193Z,100032.72
2022-08-05T19:00:21.032Z,100024.25
2022-08-05T19:02:54.901Z,100027.41
2022-08-05T19:06:11.531Z,100027.91
2022-08-05T19:08:13.755Z,100016.91
2022-08-05T19:10:42.819Z,100030.34
2022-08-05T19:13:12.320Z,100030.56
2022-08-05T19:16:00.257Z,100020.41
2022-08-05T19:18:32.326Z,100019.44
2022-08-05T19:20:59.935Z,100020.88
2022-08-05T19:24:06.440Z,100028.97
2022-08-05T19:26:16.778Z,100023.91
2022-08-05T19:28:44.247Z,100025.50
2022-08-05T19:31:14.998Z,100026.78
2022-08-05T19:33:48.229Z,100025.50
2022-08-05T19:36:26.521Z,100023.41
2022-08-05T19:39:00.929Z,100025.84
2022-08-05T19:41:58.263Z,100027.28
2022-08-05T19:44:20.397Z,100019.06
2022-08-05T19:46:50.271Z,100016.91
2022-08-05T19:49:18.558Z,100019.78
2022-08-05T19:52:08.778Z,100023.91
2022-08-05T19:54:35.286Z,100027.41
2022-08-05T19:57:06.620Z,100018.59
2022-08-05T20:00:00.335Z,100023.41
2022-08-05T20:02:27.710Z,100021.00
2022-08-05T20:04:58.796Z,100019.91
2022-08-05T20:07:48.836Z,100022.47
2022-08-05T20:10:24.994Z,100020.88
2022-08-05T20:12:53.425Z,100023.50
2022-08-05T20:15:48.758Z,100014.13
2022-08-05T20:18:10.556Z,100011.34
2022-08-05T20:20:57.579Z,100014.91
2022-08-05T20:23:39.727Z,100019.19
2022-08-05T20:26:17.456Z,100000.53
2022-08-05T20:28:51.116Z,100002.56
2022-08-05T20:31:21.688Z,100004.31
2022-08-05T20:33:52.109Z,99999.16
2022-08-05T20:36:20.920Z,100005.34
2022-08-05T20:38:54.644Z,99992.38
2022-08-05T20:41:44.391Z,100001.16
2022-08-05T20:44:15.417Z,100000.97
2022-08-05T20:46:48.203Z,99987.84
2022-08-05T20:49:23.997Z,99991.91
2022-08-05T20:51:53.733Z,99982.13
2022-08-05T20:54:25.795Z,100000.53
2022-08-05T20:57:11.181Z,100004.50
2022-08-05T20:59:46.186Z,99998.41
2022-08-05T21:02:29.802Z,99996.53
2022-08-05T21:04:58.617Z,99985.63
2022-08-05T21:07:50.976Z,99994.25
2022-08-05T21:10:18.912Z,99994.69
2022-08-05T21:13:08.812Z,99987.09
2022-08-05T21:15:34.569Z,99990.97
2022-08-05T21:18:02.260Z,99996.69
2022-08-05T21:20:33.541Z,99992.75
2022-08-05T21:23:03.057Z,99997.53
2022-08-05T21:25:33.922Z,99996.06
2022-08-05T21:28:03.472Z,99993.13
2022-08-05T21:30:31.888Z,99997.84
2022-08-05T21:33:01.728Z,99995.13
2022-08-05T21:35:43.674Z,99989.81
2022-08-05T21:38:18.042Z,99994.69
2022-08-05T21:40:45.460Z,99997.41
2022-08-05T21:43:24.010Z,99993.66
2022-08-05T21:45:57.605Z,100000.09
2022-08-05T21:48:29.110Z,99996.16
2022-08-05T21:51:01.436Z,99983.66
2022-08-05T21:53:30.440Z,99989.31
2022-08-05T21:56:09.528Z,99987.34
2022-08-05T21:58:57.166Z,99999.69
2022-08-05T22:01:26.183Z,99991.88
2022-08-05T22:03:54.137Z,99995.06
2022-08-05T22:06:35.498Z,99997.88
2022-08-05T22:09:13.640Z,100001.91
2022-08-05T22:11:46.722Z,99990.94
2022-08-05T22:14:35.359Z,99981.88
2022-08-05T22:17:06.736Z,99984.16
2022-08-05T22:19:57.486Z,99972.09
2022-08-05T22:22:27.731Z,99982.59
2022-08-05T22:25:18.136Z,99963.78
2022-08-05T22:28:08.943Z,99978.00
2022-08-05T22:30:56.169Z,99974.59
2022-08-05T22:33:57.694Z,99978.63
2022-08-05T22:36:15.631Z,99964.78
2022-08-05T22:38:48.541Z,99977.00
2022-08-05T22:41:25.980Z,99963.44
2022-08-05T22:44:09.667Z,99975.63
2022-08-05T22:46:40.900Z,99976.31
2022-08-05T22:49:23.472Z,99980.00
2022-08-05T22:52:06.401Z,99972.47
2022-08-05T22:54:36.767Z,99972.91
2022-08-05T22:57:07.042Z,99973.53
2022-08-05T22:59:48.503Z,99973.53
2022-08-05T23:02:28.935Z,99977.16
2022-08-05T23:05:04.859Z,99983.75
2022-08-05T23:07:44.748Z,99964.84
2022-08-05T23:10:14.279Z,99973.53
2022-08-05T23:12:43.733Z,99966.09
2022-08-05T23:15:12.146Z,99972.97
2022-08-05T23:18:01.354Z,99972.91
2022-08-05T23:20:27.661Z,99968.75
2022-08-05T23:22:56.573Z,99972.19
2022-08-05T23:25:51.504Z,99974.97
2022-08-05T23:28:15.876Z,99974.75
2022-08-05T23:30:53.488Z,99968.34
2022-08-05T23:33:26.238Z,99970.53
2022-08-05T23:36:10.659Z,99971.16
2022-08-05T23:38:38.690Z,99962.22
2022-08-05T23:41:06.327Z,99969.47
2022-08-05T23:44:02.993Z,99969.53
2022-08-05T23:46:22.455Z,99940.06
2022-08-05T23:49:00.389Z,99966.56
2022-08-05T23:51:53.920Z,99957.53
2022-08-05T23:54:25.783Z,99961.41
2022-08-05T23:56:55.610Z,99959.94
